Asahimaru — JJ3895 — position and weather

sailwx.info

Track history (hours):
 
Tides and Currents Weather Stations Pressure Air Temp Water Temp Dewpoint Dewpoint Depression Visibility Wind Speed Wind Dir Waves Ship Positions

Asahimaru

Last reported at 2017-Oct-25 04:30 UTC. Time now 2017-Nov-19 21:46 UTC.
Position N 34°09' E 135°06'.
Warning: this ship's position is 25 days out of date.

Length 48 m.

Type: Tanker. MMSI: 431300201.

Date/timePositionNaut miles runAvg speedWind from/ knotsBaromVisibWave heightAir tempDewpointWater temp
2017-Oct-25 04:30N 34°09' E 135°06'2511.5
2017-Oct-25 02:19N 34°34' E 135°07'5 2.3
2017-Oct-25 00:15N 34°38' E 135°08'1 1.8
2017-Oct-24 23:57N 34°38' E 135°08'1 1.3
2017-Oct-24 23:30N 34°37' E 135°08'5 9.9
2017-Oct-24 22:58N 34°34' E 135°03'  
2017-Oct-20 02:51N 34°34' E 135°03'411.6
2017-Oct-20 02:29N 34°37' E 135°07'2 1.1
2017-Oct-20 00:38N 34°39' E 135°08'0 2.3
2017-Oct-20 00:28N 34°38' E 135°08'1 1.4
2017-Oct-19 23:58N 34°37' E 135°08'3 5.5
2017-Oct-19 23:30N 34°36' E 135°06'6 0.2
2017-Oct-18 16:02N 34°33' E 135°00'0 1.5
2017-Oct-18 15:49N 34°33' E 134°60'0 0.0
2017-Oct-18 15:29N 34°33' E 134°60'0 0.0
2017-Oct-18 14:53N 34°33' E 134°60'0 0.0
2017-Oct-18 13:53N 34°33' E 134°60'0 0.0
2017-Oct-18 13:23N 34°33' E 134°60'0 0.0
2017-Oct-18 12:59N 34°33' E 134°60'0 0.0
2017-Oct-18 12:29N 34°33' E 134°60'0 0.0
2017-Oct-18 11:59N 34°33' E 134°60'0 0.0
2017-Oct-18 11:23N 34°33' E 134°60'5 0.8
2017-Oct-18 05:25N 34°35' E 135°04'5 2.8
2017-Oct-18 03:44N 34°39' E 135°08'0 0.2
2017-Oct-18 03:17N 34°38' E 135°08'1 2.9
2017-Oct-18 02:59N 34°38' E 135°09'0 0.0
2017-Oct-18 01:00N 34°38' E 135°09'0 0.0
2017-Oct-18 00:25N 34°38' E 135°09'0 0.0
2017-Oct-17 23:54N 34°38' E 135°09'0 0.0
2017-Oct-17 23:30N 34°38' E 135°09'0 0.0
2017-Oct-17 23:00N 34°38' E 135°09'0 0.0
2017-Oct-17 22:24N 34°38' E 135°09'0 0.0
2017-Oct-17 21:24N 34°38' E 135°09'0 0.0
2017-Oct-17 21:00N 34°38' E 135°09'0 0.0
2017-Oct-17 20:12N 34°38' E 135°09'0 0.0
2017-Oct-17 20:01N 34°38' E 135°09'0 0.0
2017-Oct-17 19:30N 34°38' E 135°09'0 0.0
2017-Oct-17 19:00N 34°38' E 135°09'0 0.0
2017-Oct-17 18:18N 34°38' E 135°09'0 0.0
2017-Oct-17 18:00N 34°38' E 135°09'0 0.0
2017-Oct-17 17:30N 34°38' E 135°09'0 0.0
2017-Oct-17 17:00N 34°38' E 135°09'0 0.0
2017-Oct-17 16:30N 34°38' E 135°09'0 0.0
2017-Oct-17 16:01N 34°38' E 135°09'0 0.1
2017-Oct-17 15:18N 34°38' E 135°09'0 0.2
2017-Oct-17 15:00N 34°38' E 135°09'0 0.0
2017-Oct-17 14:30N 34°38' E 135°09'0 0.0
2017-Oct-17 14:00N 34°38' E 135°09'0 0.0
2017-Oct-17 13:30N 34°38' E 135°09'0 0.0
2017-Oct-17 13:00N 34°38' E 135°09'0 0.0
2017-Oct-17 12:30N 34°38' E 135°09'0 0.0
2017-Oct-17 12:00N 34°38' E 135°09'0 0.0
2017-Oct-17 11:30N 34°38' E 135°09'0 0.0
2017-Oct-17 11:00N 34°38' E 135°09'1 2.3
2017-Oct-17 10:28N 34°37' E 135°07'  
Track history (hours):
 
Tides and Currents Weather Stations Pressure Air Temp Water Temp Dewpoint Dewpoint Depression Visibility Wind Speed Wind Dir Waves Ship Positions

Asahimaru

Last reported at 2017-Oct-25 04:30 UTC. Time now 2017-Nov-19 21:46 UTC.
Position N 34°09' E 135°06'.
Warning: this ship's position is 25 days out of date.

Length 48 m.

Type: Tanker. MMSI: 431300201.

Date/timePositionNaut miles runAvg speedWind from/ knotsBaromVisibWave heightAir tempDewpointWater temp
2017-Oct-25 04:30N 34°09' E 135°06'2511.5
2017-Oct-25 02:19N 34°34' E 135°07'5 2.3
2017-Oct-25 00:15N 34°38' E 135°08'1 1.8
2017-Oct-24 23:57N 34°38' E 135°08'1 1.3
2017-Oct-24 23:30N 34°37' E 135°08'5 9.9
2017-Oct-24 22:58N 34°34' E 135°03'  
2017-Oct-20 02:51N 34°34' E 135°03'411.6
2017-Oct-20 02:29N 34°37' E 135°07'2 1.1
2017-Oct-20 00:38N 34°39' E 135°08'0 2.3
2017-Oct-20 00:28N 34°38' E 135°08'1 1.4
2017-Oct-19 23:58N 34°37' E 135°08'3 5.5
2017-Oct-19 23:30N 34°36' E 135°06'6 0.2
2017-Oct-18 16:02N 34°33' E 135°00'0 1.5
2017-Oct-18 15:49N 34°33' E 134°60'0 0.0
2017-Oct-18 15:29N 34°33' E 134°60'0 0.0
2017-Oct-18 14:53N 34°33' E 134°60'0 0.0
2017-Oct-18 13:53N 34°33' E 134°60'0 0.0
2017-Oct-18 13:23N 34°33' E 134°60'0 0.0
2017-Oct-18 12:59N 34°33' E 134°60'0 0.0
2017-Oct-18 12:29N 34°33' E 134°60'0 0.0
2017-Oct-18 11:59N 34°33' E 134°60'0 0.0
2017-Oct-18 11:23N 34°33' E 134°60'5 0.8
2017-Oct-18 05:25N 34°35' E 135°04'5 2.8
2017-Oct-18 03:44N 34°39' E 135°08'0 0.2
2017-Oct-18 03:17N 34°38' E 135°08'1 2.9
2017-Oct-18 02:59N 34°38' E 135°09'0 0.0
2017-Oct-18 01:00N 34°38' E 135°09'0 0.0
2017-Oct-18 00:25N 34°38' E 135°09'0 0.0
2017-Oct-17 23:54N 34°38' E 135°09'0 0.0
2017-Oct-17 23:30N 34°38' E 135°09'0 0.0
2017-Oct-17 23:00N 34°38' E 135°09'0 0.0
2017-Oct-17 22:24N 34°38' E 135°09'0 0.0
2017-Oct-17 21:24N 34°38' E 135°09'0 0.0
2017-Oct-17 21:00N 34°38' E 135°09'0 0.0
2017-Oct-17 20:12N 34°38' E 135°09'0 0.0
2017-Oct-17 20:01N 34°38' E 135°09'0 0.0
2017-Oct-17 19:30N 34°38' E 135°09'0 0.0
2017-Oct-17 19:00N 34°38' E 135°09'0 0.0
2017-Oct-17 18:18N 34°38' E 135°09'0 0.0
2017-Oct-17 18:00N 34°38' E 135°09'0 0.0
2017-Oct-17 17:30N 34°38' E 135°09'0 0.0
2017-Oct-17 17:00N 34°38' E 135°09'0 0.0
2017-Oct-17 16:30N 34°38' E 135°09'0 0.0
2017-Oct-17 16:01N 34°38' E 135°09'0 0.1
2017-Oct-17 15:18N 34°38' E 135°09'0 0.2
2017-Oct-17 15:00N 34°38' E 135°09'0 0.0
2017-Oct-17 14:30N 34°38' E 135°09'0 0.0
2017-Oct-17 14:00N 34°38' E 135°09'0 0.0
2017-Oct-17 13:30N 34°38' E 135°09'0 0.0
2017-Oct-17 13:00N 34°38' E 135°09'0 0.0
2017-Oct-17 12:30N 34°38' E 135°09'0 0.0
2017-Oct-17 12:00N 34°38' E 135°09'0 0.0
2017-Oct-17 11:30N 34°38' E 135°09'0 0.0
2017-Oct-17 11:00N 34°38' E 135°09'1 2.3
2017-Oct-17 10:28N 34°37' E 135°07'  

Dump ship's entire track history